Time;durP1;ratioP1;P1;durP2;ratioP2;P2;SDS_P1;SDS_P2;PMS_P1;PMS_P2;Temp;Humidity;BMP_temperature;BMP_pressure;BME280_temperature;BME280_humidity;BME280_pressure;Samples;Min_cycle;Max_cycle;Signal;HPM_P1;HPM_P2
2023/11/17 00:01:46;;;;;;;24.50;15.47;;;6.50;99.90;;;;;;4978480;28;20262;-67
2023/11/17 00:04:14;;;;;;;22.00;15.00;;;6.40;99.90;;;;;;4977043;28;20419;-67
2023/11/17 00:06:40;;;;;;;25.00;15.10;;;6.40;99.90;;;;;;4977607;28;20192;-70
2023/11/17 00:09:10;;;;;;;30.17;17.70;;;6.30;99.90;;;;;;4976782;28;20409;-67
2023/11/17 00:11:36;;;;;;;35.43;19.97;;;6.30;99.90;;;;;;4977058;28;20486;-68
2023/11/17 00:14:02;;;;;;;30.03;18.70;;;6.30;99.90;;;;;;4990667;28;20882;-66
2023/11/17 00:16:28;;;;;;;26.93;17.33;;;6.20;99.90;;;;;;4991240;28;20456;-66
2023/11/17 00:18:53;;;;;;;29.50;17.70;;;6.20;99.90;;;;;;4976832;28;20426;-67
2023/11/17 00:21:19;;;;;;;30.70;20.10;;;6.20;99.90;;;;;;4976717;28;20196;-67
2023/11/17 00:23:45;;;;;;;31.10;18.50;;;6.10;99.90;;;;;;4976626;28;20185;-68
2023/11/17 00:26:11;;;;;;;29.07;19.27;;;6.10;99.90;;;;;;4976855;28;20265;-70
2023/11/17 00:28:40;;;;;;;35.33;18.10;;;6.10;99.90;;;;;;4981883;28;20875;-67
2023/11/17 00:31:13;;;;;;;30.57;19.30;;;6.10;99.90;;;;;;4976061;28;20810;-67
2023/11/17 00:33:40;;;;;;;27.73;18.67;;;6.10;99.90;;;;;;4976113;28;20465;-68
2023/11/17 00:36:08;;;;;;;27.90;17.63;;;6.10;99.90;;;;;;4977272;28;20439;-68
2023/11/17 00:38:36;;;;;;;28.90;18.03;;;6.00;99.90;;;;;;4976801;28;20517;-68
2023/11/17 00:41:03;;;;;;;22.17;15.20;;;6.10;99.90;;;;;;4975260;28;20419;-67
2023/11/17 00:43:29;;;;;;;26.50;18.07;;;6.00;99.90;;;;;;4976605;28;20854;-67
2023/11/17 00:45:58;;;;;;;22.17;15.40;;;6.00;99.90;;;;;;4983435;28;20451;-68
2023/11/17 00:48:30;;;;;;;26.93;16.50;;;5.90;99.90;;;;;;4974550;28;20420;-69
2023/11/17 00:50:59;;;;;;;25.23;14.30;;;5.90;99.90;;;;;;4974935;28;20468;-67
2023/11/17 00:53:29;;;;;;;23.37;15.47;;;5.90;99.90;;;;;;4976015;28;20500;-66
2023/11/17 00:55:59;;;;;;;22.13;14.33;;;5.90;99.90;;;;;;4976292;28;20436;-69
2023/11/17 00:58:25;;;;;;;17.23;12.57;;;5.80;99.90;;;;;;4976656;28;20507;-69
2023/11/17 01:00:51;;;;;;;23.40;13.40;;;5.80;99.90;;;;;;4979619;28;20533;-68
2023/11/17 01:03:18;;;;;;;21.67;13.70;;;5.80;99.90;;;;;;4976694;28;20420;-66
2023/11/17 01:05:44;;;;;;;18.60;12.10;;;5.70;99.90;;;;;;4976394;28;20459;-65
2023/11/17 01:08:10;;;;;;;16.27;11.33;;;5.70;99.90;;;;;;4977188;28;20420;-67
2023/11/17 01:10:36;;;;;;;18.93;12.97;;;5.60;99.90;;;;;;4977255;28;20215;-67
2023/11/17 01:13:06;;;;;;;13.07;10.90;;;5.60;99.90;;;;;;5018303;28;20829;-67
2023/11/17 01:15:35;;;;;;;17.83;10.43;;;5.60;99.90;;;;;;5027662;28;20228;-66
2023/11/17 01:18:05;;;;;;;27.27;12.37;;;5.50;99.90;;;;;;4975808;28;20436;-66
2023/11/17 01:20:31;;;;;;;19.97;11.50;;;5.50;99.90;;;;;;4975169;28;20707;-66
2023/11/17 01:22:57;;;;;;;19.00;11.60;;;5.50;99.90;;;;;;4976454;28;20509;-67
2023/11/17 01:25:24;;;;;;;12.67;10.67;;;5.50;99.90;;;;;;4975742;28;20509;-66
2023/11/17 01:27:51;;;;;;;19.50;11.23;;;5.50;99.90;;;;;;5011968;28;20442;-67
2023/11/17 01:30:16;;;;;;;15.17;10.10;;;5.50;99.90;;;;;;4975729;28;20415;-67
2023/11/17 01:32:42;;;;;;;18.30;10.60;;;5.40;99.90;;;;;;4975870;28;20436;-67
2023/11/17 01:35:08;;;;;;;17.20;11.50;;;5.40;99.90;;;;;;4976323;28;20266;-66
2023/11/17 01:37:34;;;;;;;18.30;11.00;;;5.40;99.90;;;;;;4976970;28;20187;-67
2023/11/17 01:39:59;;;;;;;14.80;9.60;;;5.40;99.90;;;;;;4976561;28;20438;-67
2023/11/17 01:42:25;;;;;;;17.73;10.70;;;5.30;99.90;;;;;;5007582;28;20243;-67
2023/11/17 01:44:50;;;;;;;16.10;11.67;;;5.30;99.90;;;;;;5013191;28;20306;-66
2023/11/17 01:47:18;;;;;;;18.53;11.00;;;5.30;99.90;;;;;;4979175;28;20267;-67
2023/11/17 01:49:44;;;;;;;22.33;11.90;;;5.20;99.90;;;;;;4975912;28;20189;-65
2023/11/17 01:52:10;;;;;;;15.33;11.30;;;5.20;99.90;;;;;;4976433;28;20460;-66
2023/11/17 01:54:38;;;;;;;14.83;11.37;;;5.20;99.90;;;;;;4976007;28;20712;-67
2023/11/17 01:57:04;;;;;;;16.07;11.17;;;5.20;99.90;;;;;;4991430;28;20438;-66
2023/11/17 01:59:30;;;;;;;19.00;13.70;;;5.20;99.90;;;;;;4984219;28;20816;-67
2023/11/17 02:01:56;;;;;;;19.57;12.30;;;5.20;99.90;;;;;;4975214;28;20497;-67
2023/11/17 02:04:22;;;;;;;19.77;12.33;;;5.10;99.90;;;;;;4974941;28;20223;-67
2023/11/17 02:06:56;;;;;;;17.87;12.47;;;5.10;99.90;;;;;;4975187;28;20415;-66
2023/11/17 02:09:38;;;;;;;22.13;11.63;;;5.10;99.90;;;;;;4974783;28;20202;-66
2023/11/17 02:12:29;;;;;;;19.90;12.30;;;5.00;99.90;;;;;;4990620;28;20451;-66
2023/11/17 02:15:00;;;;;;;17.40;12.63;;;5.00;99.90;;;;;;4980045;28;20528;-68
2023/11/17 02:17:28;;;;;;;22.17;13.43;;;5.00;99.90;;;;;;4975770;28;20684;-66
2023/11/17 02:19:59;;;;;;;16.80;11.17;;;4.90;99.90;;;;;;4975801;28;21045;-66
2023/11/17 02:22:30;;;;;;;18.47;11.87;;;4.90;99.90;;;;;;4974467;28;20427;-66
2023/11/17 02:25:10;;;;;;;19.03;11.23;;;4.80;99.90;;;;;;4974780;28;20451;-66
2023/11/17 02:27:46;;;;;;;21.13;12.47;;;4.80;99.90;;;;;;4989380;28;20520;-66
2023/11/17 02:30:19;;;;;;;19.47;12.03;;;4.70;99.90;;;;;;5016849;28;20470;-66
2023/11/17 02:32:50;;;;;;;17.07;12.27;;;4.70;99.90;;;;;;4974213;28;20514;-67
2023/11/17 02:35:17;;;;;;;19.47;12.03;;;4.70;99.90;;;;;;4974065;28;20526;-66
2023/11/17 02:37:43;;;;;;;18.10;11.97;;;4.70;99.90;;;;;;4974352;28;20515;-68
2023/11/17 02:40:18;;;;;;;21.03;12.03;;;4.60;99.90;;;;;;4974722;28;20510;-67
2023/11/17 02:42:48;;;;;;;15.63;10.80;;;4.60;99.90;;;;;;4984295;28;20781;-67
2023/11/17 02:45:19;;;;;;;13.93;9.40;;;4.60;99.90;;;;;;4992532;28;20444;-67
2023/11/17 02:47:48;;;;;;;14.33;10.67;;;4.60;99.90;;;;;;4974333;28;20723;-67
2023/11/17 02:50:21;;;;;;;16.90;10.93;;;4.50;99.90;;;;;;4974990;28;20474;-67
2023/11/17 02:53:10;;;;;;;17.93;11.27;;;4.50;99.90;;;;;;4974604;28;20444;-67
2023/11/17 02:55:37;;;;;;;20.50;12.00;;;4.50;99.90;;;;;;4974369;28;20564;-65
2023/11/17 02:58:04;;;;;;;21.27;12.27;;;4.50;99.90;;;;;;4980487;28;20812;-67
2023/11/17 03:00:30;;;;;;;19.03;11.90;;;4.50;99.90;;;;;;4974835;28;20431;-67
2023/11/17 03:02:59;;;;;;;19.00;11.70;;;4.50;99.90;;;;;;4975203;28;20431;-67
2023/11/17 03:05:26;;;;;;;25.53;14.37;;;4.50;99.90;;;;;;4975271;28;20447;-66
2023/11/17 03:07:52;;;;;;;17.77;12.53;;;4.50;99.90;;;;;;4975450;28;20431;-67
2023/11/17 03:10:18;;;;;;;20.53;11.60;;;4.50;99.90;;;;;;4975581;28;20715;-66
2023/11/17 03:12:44;;;;;;;23.43;13.07;;;4.50;99.90;;;;;;5017058;28;20268;-66
2023/11/17 03:15:10;;;;;;;24.33;14.87;;;4.40;99.90;;;;;;4989139;28;20530;-66
2023/11/17 03:17:39;;;;;;;22.20;14.87;;;4.40;99.90;;;;;;4975337;28;20481;-66
2023/11/17 03:20:14;;;;;;;25.40;14.13;;;4.40;99.90;;;;;;4975537;28;20288;-66
2023/11/17 03:22:46;;;;;;;23.40;12.70;;;4.40;99.90;;;;;;4974512;28;20482;-66
2023/11/17 03:25:15;;;;;;;22.60;14.20;;;4.30;99.90;;;;;;4975000;28;20723;-67
2023/11/17 03:27:47;;;;;;;18.80;12.87;;;4.30;99.90;;;;;;5015994;28;20553;-66
2023/11/17 03:30:17;;;;;;;15.87;10.50;;;4.30;99.90;;;;;;4996395;28;20462;-67
2023/11/17 03:32:44;;;;;;;17.80;10.50;;;4.20;99.90;;;;;;4974789;28;20451;-67
2023/11/17 03:35:09;;;;;;;18.10;11.33;;;4.20;99.90;;;;;;4975649;28;20444;-67
2023/11/17 03:37:35;;;;;;;16.80;10.20;;;4.20;99.90;;;;;;4976324;28;20451;-68
2023/11/17 03:40:11;;;;;;;16.33;9.83;;;4.10;99.90;;;;;;4977437;28;20183;-67
2023/11/17 03:42:37;;;;;;;11.23;8.03;;;4.00;99.90;;;;;;5015112;28;20417;-68
2023/11/17 03:45:07;;;;;;;11.50;8.57;;;4.00;99.90;;;;;;5023384;28;20466;-67
2023/11/17 03:47:36;;;;;;;12.27;9.03;;;4.00;99.90;;;;;;4975076;28;20494;-66
2023/11/17 03:50:03;;;;;;;16.20;9.67;;;3.90;99.90;;;;;;4975528;28;20763;-67
2023/11/17 03:52:31;;;;;;;14.03;9.23;;;3.90;99.90;;;;;;4974638;28;20466;-67
2023/11/17 03:54:59;;;;;;;15.20;9.20;;;3.90;99.90;;;;;;4975091;28;20472;-67
2023/11/17 03:57:25;;;;;;;13.40;8.73;;;3.90;99.90;;;;;;5006037;28;20442;-67
2023/11/17 03:59:53;;;;;;;11.50;7.33;;;3.90;99.90;;;;;;4981016;28;20424;-67
2023/11/17 04:02:22;;;;;;;7.60;6.10;;;3.80;99.90;;;;;;4975061;28;20231;-67
2023/11/17 04:04:51;;;;;;;10.93;7.20;;;3.80;99.90;;;;;;4975785;28;20444;-68
2023/11/17 04:07:16;;;;;;;15.00;8.80;;;3.80;99.90;;;;;;4974653;28;20462;-69
2023/11/17 04:09:42;;;;;;;13.37;8.40;;;3.80;99.90;;;;;;4959514;28;20432;-67
2023/11/17 04:12:09;;;;;;;11.80;7.97;;;3.80;99.90;;;;;;4993678;28;20225;-68
2023/11/17 04:14:39;;;;;;;16.30;8.50;;;3.80;99.90;;;;;;5012322;28;20216;-68
2023/11/17 04:17:07;;;;;;;14.57;10.40;;;3.90;99.90;;;;;;4983835;28;20700;-66
2023/11/17 04:19:34;;;;;;;22.00;15.60;;;4.00;99.90;;;;;;4975748;28;20415;-68
2023/11/17 04:22:00;;;;;;;21.90;13.70;;;4.10;99.90;;;;;;4975379;28;20188;-65
2023/11/17 04:24:26;;;;;;;18.33;12.37;;;4.10;99.90;;;;;;4975311;28;20466;-69
2023/11/17 04:26:52;;;;;;;24.13;13.73;;;4.20;99.90;;;;;;4982514;28;20722;-68
2023/11/17 04:29:17;;;;;;;23.23;14.17;;;4.20;99.90;;;;;;4993276;28;20212;-69
2023/11/17 04:31:43;;;;;;;19.67;12.73;;;4.20;99.90;;;;;;4975860;28;20333;-67
2023/11/17 04:34:11;;;;;;;26.37;15.00;;;4.30;99.90;;;;;;4977880;28;20567;-67
2023/11/17 04:36:37;;;;;;;20.70;11.80;;;4.30;99.90;;;;;;4977893;28;20533;-67
2023/11/17 04:39:11;;;;;;;28.63;16.50;;;4.30;99.90;;;;;;4977027;28;20420;-68
2023/11/17 04:41:37;;;;;;;24.50;14.10;;;4.30;99.90;;;;;;4976828;28;20428;-67
2023/11/17 04:44:03;;;;;;;29.07;16.60;;;4.40;99.90;;;;;;4999227;28;20435;-66
2023/11/17 04:46:29;;;;;;;29.70;18.80;;;4.40;99.90;;;;;;5001462;28;20474;-67
2023/11/17 04:48:55;;;;;;;25.97;15.70;;;4.40;99.90;;;;;;4977015;28;20420;-66
2023/11/17 04:51:20;;;;;;;31.27;18.70;;;4.40;99.90;;;;;;4976848;28;20623;-66
2023/11/17 04:53:46;;;;;;;35.10;18.67;;;4.40;99.90;;;;;;4977294;28;20287;-66
2023/11/17 04:56:13;;;;;;;36.80;18.27;;;4.40;99.90;;;;;;4977351;28;20208;-67
2023/11/17 04:58:39;;;;;;;27.70;16.23;;;4.40;99.90;;;;;;4990973;28;20196;-68
2023/11/17 05:01:05;;;;;;;26.07;16.43;;;4.40;99.90;;;;;;4978067;28;20436;-67
2023/11/17 05:03:30;;;;;;;25.17;14.90;;;4.40;99.90;;;;;;4978649;28;20427;-68
2023/11/17 05:05:56;;;;;;;32.03;16.70;;;4.40;99.90;;;;;;4978587;28;20627;-67
2023/11/17 05:08:21;;;;;;;25.63;15.20;;;4.30;99.90;;;;;;4980017;28;20495;-68
2023/11/17 05:10:47;;;;;;;22.67;13.87;;;4.30;99.90;;;;;;4979486;28;20212;-69
2023/11/17 05:13:13;;;;;;;21.43;12.50;;;4.30;99.90;;;;;;4981411;28;20202;-69
2023/11/17 05:15:43;;;;;;;27.30;16.00;;;4.40;99.90;;;;;;4996723;28;20432;-67
2023/11/17 05:18:09;;;;;;;26.10;14.80;;;4.40;99.90;;;;;;4979449;28;20456;-68
2023/11/17 05:20:35;;;;;;;25.53;14.63;;;4.40;99.90;;;;;;4979791;28;20420;-67
2023/11/17 05:23:01;;;;;;;26.50;14.57;;;4.40;99.90;;;;;;4981483;28;20199;-68
2023/11/17 05:25:27;;;;;;;23.20;12.90;;;4.40;99.90;;;;;;4979708;28;20220;-67
2023/11/17 05:27:53;;;;;;;21.77;12.33;;;4.40;99.90;;;;;;4981381;28;20420;-68
2023/11/17 05:30:18;;;;;;;25.03;15.03;;;4.40;99.90;;;;;;5009190;28;20516;-67
2023/11/17 05:32:44;;;;;;;25.03;13.70;;;4.40;99.90;;;;;;4978050;28;20193;-69
2023/11/17 05:35:10;;;;;;;26.37;14.50;;;4.40;99.90;;;;;;4977872;28;20223;-67
2023/11/17 05:37:36;;;;;;;29.67;14.90;;;4.40;99.90;;;;;;4978115;28;20180;-68
2023/11/17 05:40:03;;;;;;;26.83;14.37;;;4.50;99.90;;;;;;4978502;28;20420;-68
2023/11/17 05:42:29;;;;;;;19.20;11.50;;;4.50;99.90;;;;;;5011376;28;20495;-67
2023/11/17 05:44:55;;;;;;;24.80;13.77;;;4.50;99.90;;;;;;4994992;28;20432;-68
2023/11/17 05:47:21;;;;;;;24.90;14.20;;;4.50;99.90;;;;;;4978978;28;20228;-68
2023/11/17 05:49:47;;;;;;;29.40;15.50;;;4.50;99.90;;;;;;4977713;28;20420;-68
2023/11/17 05:52:14;;;;;;;22.30;14.20;;;4.50;99.90;;;;;;4979353;28;20503;-68
2023/11/17 05:54:44;;;;;;;21.53;11.87;;;4.50;99.90;;;;;;4978405;28;20432;-69
2023/11/17 05:57:22;;;;;;;24.73;13.83;;;4.50;99.90;;;;;;4996923;28;20498;-70
2023/11/17 05:59:53;;;;;;;26.23;13.97;;;4.50;99.90;;;;;;4994939;28;20451;-68
2023/11/17 06:02:19;;;;;;;39.63;18.60;;;4.60;99.90;;;;;;4978461;28;20507;-67
2023/11/17 06:04:44;;;;;;;37.33;20.90;;;4.60;99.90;;;;;;4978362;28;20517;-68
2023/11/17 06:07:10;;;;;;;37.90;20.17;;;4.70;99.90;;;;;;4978381;28;20447;-68
2023/11/17 06:09:37;;;;;;;39.13;20.80;;;4.70;99.90;;;;;;4978541;28;20204;-68
2023/11/17 06:12:03;;;;;;;39.13;20.80;;;4.70;99.90;;;;;;4975431;28;20197;-67
2023/11/17 06:14:30;;;;;;;40.37;21.63;;;4.70;99.90;;;;;;5024660;28;20419;-68
2023/11/17 06:16:57;;;;;;;38.50;22.47;;;4.70;99.90;;;;;;5004877;28;20416;-68
2023/11/17 06:19:23;;;;;;;39.13;20.83;;;4.80;99.90;;;;;;4979239;28;20420;-69
2023/11/17 06:21:49;;;;;;;45.03;23.40;;;4.80;99.90;;;;;;4977819;28;20449;-70
2023/11/17 06:24:15;;;;;;;35.30;21.77;;;4.80;99.90;;;;;;4978406;28;20432;-71
2023/11/17 06:26:49;;;;;;;30.97;19.37;;;4.80;99.90;;;;;;4979191;28;20423;-69
2023/11/17 06:29:16;;;;;;;36.30;20.80;;;4.80;99.90;;;;;;4983681;28;20424;-71
2023/11/17 06:31:42;;;;;;;29.83;18.43;;;4.90;99.90;;;;;;4978623;28;20480;-70
2023/11/17 06:34:09;;;;;;;32.60;18.00;;;4.80;99.90;;;;;;4979830;28;20889;-70
2023/11/17 06:36:41;;;;;;;42.33;21.83;;;4.80;99.90;;;;;;4978789;28;20443;-68
2023/11/17 06:39:16;;;;;;;34.10;21.60;;;4.80;99.90;;;;;;4978157;28;20424;-71
2023/11/17 06:41:47;;;;;;;39.57;20.30;;;4.80;99.90;;;;;;4978159;28;20443;-71
2023/11/17 06:44:14;;;;;;;36.33;20.50;;;4.80;99.90;;;;;;4989992;28;20491;-69
2023/11/17 06:46:42;;;;;;;36.87;20.47;;;4.80;99.90;;;;;;5005927;28;20886;-71
2023/11/17 06:49:09;;;;;;;40.30;21.63;;;4.80;99.90;;;;;;4979000;28;20420;-69
2023/11/17 06:51:56;;;;;;;40.50;22.07;;;4.80;99.90;;;;;;4976341;28;20460;-72
2023/11/17 06:54:23;;;;;;;42.17;22.87;;;4.90;99.90;;;;;;4978584;28;20715;-69
2023/11/17 06:56:49;;;;;;;37.83;20.70;;;4.90;99.90;;;;;;4976888;28;20416;-71
2023/11/17 06:59:17;;;;;;;43.60;21.40;;;5.00;99.90;;;;;;4974781;28;20593;-69
2023/11/17 07:01:43;;;;;;;36.53;21.57;;;4.90;99.90;;;;;;4977608;28;20930;-69
2023/11/17 07:04:12;;;;;;;48.57;22.53;;;4.90;99.90;;;;;;4979697;28;20424;-73
2023/11/17 07:06:42;;;;;;;38.67;22.70;;;4.90;99.90;;;;;;4979107;28;20503;-69
2023/11/17 07:09:19;;;;;;;42.73;22.80;;;4.90;99.90;;;;;;4978852;28;20420;-69
2023/11/17 07:11:52;;;;;;;42.47;22.83;;;4.90;99.90;;;;;;4979780;28;20528;-70
2023/11/17 07:14:25;;;;;;;50.43;23.57;;;4.90;99.90;;;;;;5001941;28;20735;-70
2023/11/17 07:16:54;;;;;;;41.83;24.23;;;4.90;99.90;;;;;;4984921;28;20422;-69
2023/11/17 07:19:20;;;;;;;46.00;23.10;;;5.00;99.90;;;;;;4977036;28;20456;-68
2023/11/17 07:21:47;;;;;;;53.87;27.80;;;5.00;99.90;;;;;;4977601;28;20419;-70
2023/11/17 07:24:14;;;;;;;47.73;22.43;;;5.10;99.90;;;;;;4976890;28;20588;-70
2023/11/17 07:26:40;;;;;;;56.50;27.00;;;5.00;99.90;;;;;;4975402;28;20444;-68
2023/11/17 07:29:06;;;;;;;46.70;24.83;;;5.10;99.90;;;;;;4987153;28;20436;-70
2023/11/17 07:31:39;;;;;;;43.93;23.50;;;5.20;99.90;;;;;;4974446;28;20491;-71
2023/11/17 07:34:07;;;;;;;46.53;25.93;;;5.20;99.90;;;;;;4969659;28;20459;-71
2023/11/17 07:36:37;;;;;;;41.67;23.07;;;5.20;99.90;;;;;;4970330;28;20891;-70
2023/11/17 07:39:03;;;;;;;39.53;23.67;;;5.30;99.90;;;;;;4994949;28;20728;-69
2023/11/17 07:41:29;;;;;;;50.07;26.10;;;5.30;99.90;;;;;;4974845;28;20404;-70
2023/11/17 07:43:56;;;;;;;46.17;25.50;;;5.40;99.90;;;;;;4975374;28;20569;-71
2023/11/17 07:46:25;;;;;;;50.10;26.27;;;5.40;99.90;;;;;;4971767;28;20229;-72
2023/11/17 07:48:51;;;;;;;49.90;25.03;;;5.40;99.90;;;;;;4969719;28;20706;-70
2023/11/17 07:51:17;;;;;;;51.97;28.50;;;5.50;99.90;;;;;;4974560;28;20494;-69
2023/11/17 07:53:43;;;;;;;48.57;27.60;;;5.60;99.90;;;;;;4976621;28;20523;-72
2023/11/17 07:56:11;;;;;;;50.07;26.70;;;5.60;99.90;;;;;;4977366;28;20489;-71
2023/11/17 07:58:37;;;;;;;49.90;26.00;;;5.60;99.90;;;;;;4978950;28;20436;-70
2023/11/17 08:01:07;;;;;;;51.80;25.87;;;5.70;99.90;;;;;;4977628;28;20435;-71
2023/11/17 08:03:34;;;;;;;54.00;26.87;;;5.80;99.90;;;;;;4971668;28;20462;-70
2023/11/17 08:06:02;;;;;;;41.13;24.63;;;5.80;99.90;;;;;;4969889;28;20488;-70
2023/11/17 08:08:29;;;;;;;56.90;30.60;;;5.90;99.90;;;;;;4975856;28;20416;-70
2023/11/17 08:10:55;;;;;;;60.07;30.73;;;5.90;99.90;;;;;;4971815;28;20764;-70
2023/11/17 08:13:21;;;;;;;53.07;27.97;;;5.90;99.90;;;;;;4994213;28;20442;-70
2023/11/17 08:15:48;;;;;;;47.60;27.70;;;6.00;99.90;;;;;;4980683;28;20443;-71
2023/11/17 08:18:14;;;;;;;55.40;28.40;;;6.00;99.90;;;;;;4981790;28;20416;-70
2023/11/17 08:20:41;;;;;;;49.83;26.50;;;6.10;99.90;;;;;;4982107;28;20462;-72
2023/11/17 08:23:10;;;;;;;50.40;30.40;;;6.20;99.90;;;;;;4982708;28;20424;-69
2023/11/17 08:25:35;;;;;;;50.20;28.20;;;6.30;99.90;;;;;;4983343;28;20455;-69
2023/11/17 08:28:02;;;;;;;52.13;28.10;;;6.30;99.90;;;;;;5025419;28;20440;-70
2023/11/17 08:30:29;;;;;;;46.60;27.47;;;6.30;99.90;;;;;;4980796;28;20200;-71
2023/11/17 08:32:55;;;;;;;44.50;24.43;;;6.40;99.90;;;;;;4979499;28;20432;-69
2023/11/17 08:35:23;;;;;;;53.17;27.30;;;6.40;99.90;;;;;;4965427;28;20222;-73
2023/11/17 08:37:52;;;;;;;51.17;28.30;;;6.40;99.90;;;;;;4980618;28;20441;-71
2023/11/17 08:40:18;;;;;;;56.05;33.90;;;6.40;99.90;;;;;;4974586;28;20500;-72
2023/11/17 08:42:45;;;;;;;43.03;26.80;;;6.50;99.90;;;;;;5012894;28;20204;-72
2023/11/17 08:45:12;;;;;;;42.90;25.47;;;6.50;99.90;;;;;;5028127;28;20450;-71
2023/11/17 08:47:45;;;;;;;44.77;27.57;;;6.50;99.90;;;;;;4979936;28;20457;-71
2023/11/17 08:50:12;;;;;;;47.60;25.73;;;6.50;99.90;;;;;;4982048;28;20463;-69
2023/11/17 08:52:40;;;;;;;45.27;26.80;;;6.60;99.90;;;;;;4981979;28;20482;-73
2023/11/17 08:55:13;;;;;;;41.40;24.53;;;6.60;99.90;;;;;;4973733;28;20436;-72
2023/11/17 08:57:41;;;;;;;46.90;25.33;;;6.60;99.90;;;;;;4976705;28;20433;-74
2023/11/17 09:00:12;;;;;;;50.70;26.60;;;6.70;99.90;;;;;;4968368;28;20890;-69
2023/11/17 09:02:45;;;;;;;41.30;25.73;;;6.70;99.90;;;;;;4975903;28;20749;-73
2023/11/17 09:05:12;;;;;;;40.85;23.27;;;6.70;99.90;;;;;;4980772;28;20420;-69
2023/11/17 09:07:40;;;;;;;47.17;27.90;;;6.70;99.90;;;;;;4978591;28;20184;-72
2023/11/17 09:10:08;;;;;;;42.10;25.43;;;6.80;99.90;;;;;;4961912;28;20444;-70
2023/11/17 09:12:36;;;;;;;43.50;26.90;;;6.90;99.90;;;;;;4984952;28;20536;-72
2023/11/17 09:15:08;;;;;;;36.90;23.23;;;6.90;99.90;;;;;;4981140;28;20479;-70
2023/11/17 09:17:35;;;;;;;44.03;24.10;;;7.00;99.90;;;;;;4979415;28;20436;-69
2023/11/17 09:20:04;;;;;;;48.03;26.83;;;7.00;99.90;;;;;;4979435;28;20423;-68
2023/11/17 09:22:30;;;;;;;47.73;28.70;;;7.10;99.90;;;;;;4981599;28;20541;-70
2023/11/17 09:24:56;;;;;;;45.57;27.93;;;7.10;99.90;;;;;;4979696;28;20463;-71
2023/11/17 09:27:21;;;;;;;42.37;25.20;;;7.10;99.90;;;;;;5005313;28;20415;-71
2023/11/17 09:29:47;;;;;;;43.83;25.63;;;7.10;99.90;;;;;;4978010;28;20195;-70
2023/11/17 09:32:12;;;;;;;41.43;24.70;;;7.00;99.90;;;;;;5017389;28;20244;-73
2023/11/17 09:34:39;;;;;;;47.97;29.37;;;7.00;99.90;;;;;;4986609;28;20219;-70
2023/11/17 09:37:05;;;;;;;46.30;26.20;;;7.00;99.90;;;;;;5000148;28;20181;-70
2023/11/17 09:39:31;;;;;;;46.47;26.30;;;7.00;99.90;;;;;;5023753;28;20411;-69
2023/11/17 09:41:59;;;;;;;42.17;24.00;;;6.90;99.90;;;;;;4989053;28;20427;-73
2023/11/17 09:44:27;;;;;;;40.13;23.60;;;6.90;99.90;;;;;;5042769;28;20502;-69
2023/11/17 09:46:58;;;;;;;49.73;26.70;;;6.80;99.90;;;;;;4986326;28;20427;-70
2023/11/17 09:49:28;;;;;;;55.13;29.80;;;6.80;99.90;;;;;;4976126;28;20431;-70
2023/11/17 09:51:58;;;;;;;45.33;27.70;;;6.70;99.90;;;;;;4982161;28;20488;-72
2023/11/17 09:54:28;;;;;;;46.43;28.07;;;6.70;99.90;;;;;;4979797;28;20408;-72
2023/11/17 09:56:56;;;;;;;50.87;28.10;;;6.70;99.90;;;;;;4989022;28;20416;-71
2023/11/17 09:59:22;;;;;;;49.90;27.77;;;6.70;99.90;;;;;;4976832;28;20438;-69
2023/11/17 10:01:48;;;;;;;45.83;28.20;;;6.70;99.90;;;;;;4973876;28;20449;-70
2023/11/17 10:04:15;;;;;;;44.93;26.77;;;6.70;99.90;;;;;;4974510;28;20436;-70
2023/11/17 10:06:42;;;;;;;48.37;28.23;;;6.70;99.90;;;;;;4973572;28;20494;-72
2023/11/17 10:09:11;;;;;;;53.97;28.20;;;6.70;99.90;;;;;;4978437;28;20527;-74
2023/11/17 10:11:41;;;;;;;54.93;31.60;;;6.60;99.90;;;;;;4980537;28;20926;-72
2023/11/17 10:14:09;;;;;;;46.13;27.60;;;6.60;99.90;;;;;;4993735;28;20430;-70
2023/11/17 10:16:37;;;;;;;50.60;27.77;;;6.60;99.90;;;;;;4988752;28;20439;-71
2023/11/17 10:19:04;;;;;;;42.23;24.13;;;6.60;99.90;;;;;;4955473;28;20635;-70
2023/11/17 10:21:33;;;;;;;37.37;23.13;;;6.60;99.90;;;;;;4970152;28;20487;-71
2023/11/17 10:24:00;;;;;;;49.20;27.67;;;6.60;99.90;;;;;;4970285;28;20420;-71
2023/11/17 10:26:28;;;;;;;40.50;24.30;;;6.60;99.90;;;;;;4971464;28;20492;-71
2023/11/17 10:28:54;;;;;;;50.53;26.43;;;6.60;99.90;;;;;;4979950;28;20459;-69
2023/11/17 10:31:20;;;;;;;43.60;25.13;;;6.70;99.90;;;;;;4973834;28;20475;-70
2023/11/17 10:33:46;;;;;;;47.97;28.50;;;6.70;99.90;;;;;;4969697;28;20428;-71
2023/11/17 10:36:15;;;;;;;44.83;25.53;;;6.70;99.90;;;;;;4976465;28;20436;-72
2023/11/17 10:38:45;;;;;;;43.30;24.83;;;6.70;99.90;;;;;;4971900;28;20713;-72
2023/11/17 10:41:22;;;;;;;42.13;23.63;;;6.70;99.90;;;;;;4973197;28;20482;-70
2023/11/17 10:43:52;;;;;;;59.07;33.10;;;6.70;99.90;;;;;;4987568;28;20447;-72
2023/11/17 10:46:21;;;;;;;55.07;28.63;;;6.80;99.90;;;;;;4983546;28;20798;-72
2023/11/17 10:48:50;;;;;;;49.60;27.33;;;6.90;99.90;;;;;;4980262;28;20432;-73
2023/11/17 10:51:18;;;;;;;53.40;30.67;;;6.90;99.90;;;;;;4979811;28;20467;-72
2023/11/17 10:54:04;;;;;;;51.47;28.40;;;7.00;99.90;;;;;;4978057;28;20762;-71
2023/11/17 10:56:30;;;;;;;47.03;26.30;;;7.00;99.90;;;;;;4978469;28;20486;-70
2023/11/17 10:58:58;;;;;;;52.50;27.47;;;7.10;99.90;;;;;;5010915;28;20409;-72
2023/11/17 11:01:35;;;;;;;51.13;26.90;;;7.10;99.90;;;;;;4979775;28;20485;-70
2023/11/17 11:04:09;;;;;;;57.57;30.17;;;7.10;99.90;;;;;;4970242;28;20727;-72
2023/11/17 11:06:38;;;;;;;57.47;28.13;;;7.10;99.90;;;;;;4984453;28;20443;-72
2023/11/17 11:09:05;;;;;;;53.27;30.10;;;7.00;99.90;;;;;;4994225;28;20479;-73
2023/11/17 11:11:32;;;;;;;61.80;32.37;;;7.00;99.90;;;;;;4981197;28;20472;-70
2023/11/17 11:14:00;;;;;;;55.67;29.40;;;7.10;99.90;;;;;;4981546;28;20519;-72
2023/11/17 11:16:30;;;;;;;57.93;30.73;;;7.10;99.90;;;;;;4999062;28;20440;-71
2023/11/17 11:18:58;;;;;;;66.23;34.97;;;7.10;99.90;;;;;;4979962;28;20415;-70
2023/11/17 11:21:27;;;;;;;59.00;33.30;;;7.20;99.90;;;;;;4980790;28;20488;-72
2023/11/17 11:23:59;;;;;;;54.17;30.90;;;7.20;99.90;;;;;;4981461;28;20424;-71
2023/11/17 11:26:29;;;;;;;50.30;28.80;;;7.20;99.90;;;;;;4977796;28;20451;-70
2023/11/17 11:28:57;;;;;;;47.50;27.83;;;7.20;99.90;;;;;;5012144;28;20672;-72
2023/11/17 11:31:25;;;;;;;64.60;34.20;;;7.20;99.90;;;;;;4963637;28;20499;-73
2023/11/17 11:33:52;;;;;;;59.90;33.20;;;7.30;99.90;;;;;;4969319;28;20425;-73
2023/11/17 11:36:18;;;;;;;50.30;31.03;;;7.40;99.90;;;;;;4979836;28;20454;-73
2023/11/17 11:38:47;;;;;;;47.70;27.77;;;7.40;99.90;;;;;;4977998;28;20417;-71
2023/11/17 11:41:15;;;;;;;47.53;28.67;;;7.50;99.90;;;;;;4979866;28;20435;-71
2023/11/17 11:43:52;;;;;;;44.40;25.87;;;7.60;99.90;;;;;;5006826;28;20431;-71
2023/11/17 11:46:20;;;;;;;48.33;26.40;;;7.60;99.90;;;;;;5020235;28;20497;-75
2023/11/17 11:48:52;;;;;;;56.77;31.60;;;7.50;99.90;;;;;;4981150;28;20419;-71
2023/11/17 11:51:23;;;;;;;45.57;26.70;;;7.50;99.90;;;;;;4978746;28;20479;-74
2023/11/17 11:53:57;;;;;;;43.77;24.57;;;7.50;99.90;;;;;;4980318;28;20436;-71
2023/11/17 11:56:32;;;;;;;42.70;25.57;;;7.50;99.90;;;;;;4980216;28;20442;-72
2023/11/17 11:58:59;;;;;;;38.13;22.67;;;7.50;99.90;;;;;;4981176;28;20411;-72
2023/11/17 12:01:32;;;;;;;39.00;22.60;;;7.50;99.90;;;;;;4981103;28;20415;-73
2023/11/17 12:04:00;;;;;;;48.93;28.53;;;7.50;99.90;;;;;;4980317;28;20850;-73
2023/11/17 12:06:30;;;;;;;49.53;26.00;;;7.50;99.90;;;;;;4980700;28;20447;-71
2023/11/17 12:08:59;;;;;;;40.37;23.83;;;7.50;99.90;;;;;;4975322;28;20694;-73
2023/11/17 12:11:36;;;;;;;43.80;24.87;;;7.50;99.90;;;;;;4978649;28;20473;-70
2023/11/17 12:14:07;;;;;;;39.77;22.67;;;7.50;99.90;;;;;;4997003;28;20432;-73
2023/11/17 12:16:39;;;;;;;38.50;22.83;;;7.50;99.90;;;;;;4980067;28;20776;-70
2023/11/17 12:19:05;;;;;;;57.13;35.03;;;7.50;99.90;;;;;;4977649;28;20723;-71
2023/11/17 12:21:38;;;;;;;45.00;25.27;;;7.60;99.90;;;;;;4982794;28;20478;-74
2023/11/17 12:24:11;;;;;;;49.27;26.57;;;7.60;99.90;;;;;;4982405;28;20423;-74
2023/11/17 12:26:38;;;;;;;37.63;21.40;;;7.50;99.90;;;;;;4979784;28;20434;-73
2023/11/17 12:29:04;;;;;;;49.17;26.07;;;7.50;99.90;;;;;;5014152;28;20505;-72
2023/11/17 12:31:30;;;;;;;46.23;25.93;;;7.50;99.90;;;;;;4994077;28;20475;-73
2023/11/17 12:33:56;;;;;;;39.07;22.10;;;7.50;99.90;;;;;;4984246;28;20411;-72
2023/11/17 12:36:25;;;;;;;35.73;20.90;;;7.50;99.90;;;;;;4977696;28;20506;-72
2023/11/17 12:38:57;;;;;;;40.70;21.77;;;7.50;99.90;;;;;;4979607;28;20439;-70
2023/11/17 12:41:25;;;;;;;34.93;20.20;;;7.40;99.90;;;;;;4973933;28;20460;-74
2023/11/17 12:43:52;;;;;;;37.87;22.67;;;7.40;99.90;;;;;;4986802;28;20424;-72